createdAt,value
2023-01-21T00:01:46.198Z,10.77
2023-01-21T00:04:14.531Z,9.30
2023-01-21T00:06:43.349Z,9.33
2023-01-21T00:09:13.273Z,10.50
2023-01-21T00:11:41.655Z,9.67
2023-01-21T00:14:10.078Z,10.07
2023-01-21T00:16:38.564Z,9.20
2023-01-21T00:19:06.954Z,8.77
2023-01-21T00:21:35.449Z,8.30
2023-01-21T00:24:04.044Z,8.10
2023-01-21T00:26:33.826Z,8.67
2023-01-21T00:29:02.123Z,8.53
2023-01-21T00:31:30.655Z,9.30
2023-01-21T00:33:59.220Z,8.17
2023-01-21T00:36:30.312Z,8.63
2023-01-21T00:38:59.573Z,8.63
2023-01-21T00:41:27.938Z,9.10
2023-01-21T00:43:57.772Z,8.97
2023-01-21T00:46:26.183Z,8.93
2023-01-21T00:48:56.011Z,9.53
2023-01-21T00:51:24.687Z,8.63
2023-01-21T00:53:53.143Z,8.30
2023-01-21T00:56:24.394Z,8.50
2023-01-21T00:58:52.954Z,7.40
2023-01-21T01:01:23.828Z,7.27
2023-01-21T01:03:52.234Z,6.57
2023-01-21T01:06:23.047Z,6.87
2023-01-21T01:08:52.012Z,6.87
2023-01-21T01:11:22.278Z,6.57
2023-01-21T01:13:50.728Z,6.57
2023-01-21T01:16:19.245Z,6.40
2023-01-21T01:18:49.568Z,6.70
2023-01-21T01:21:20.076Z,7.00
2023-01-21T01:23:49.197Z,5.87
2023-01-21T01:26:19.754Z,6.00
2023-01-21T01:28:48.473Z,5.60
2023-01-21T01:31:18.413Z,6.23
2023-01-21T01:33:53.125Z,8.60
2023-01-21T01:36:24.168Z,9.87
2023-01-21T01:38:53.842Z,9.23
2023-01-21T01:41:24.794Z,7.30
2023-01-21T01:43:57.515Z,6.40
2023-01-21T01:46:27.609Z,5.60
2023-01-21T01:49:02.709Z,6.20
2023-01-21T01:51:39.576Z,6.67
2023-01-21T01:54:08.902Z,8.10
2023-01-21T01:56:41.402Z,8.00
2023-01-21T01:59:09.743Z,8.33
2023-01-21T02:01:38.723Z,8.43
2023-01-21T02:04:13.216Z,9.17
2023-01-21T02:06:43.768Z,9.20
2023-01-21T02:09:12.231Z,8.90
2023-01-21T02:11:40.789Z,8.60
2023-01-21T02:14:09.357Z,11.73
2023-01-21T02:17:18.296Z,11.43
2023-01-21T02:20:39.296Z,12.57
2023-01-21T02:23:16.119Z,9.30
2023-01-21T02:26:31.741Z,8.73
2023-01-21T02:32:22.561Z,7.90
2023-01-21T02:34:58.795Z,8.20
2023-01-21T02:37:44.552Z,7.83
2023-01-21T02:40:19.344Z,7.50
2023-01-21T02:42:52.520Z,6.60
2023-01-21T02:45:25.820Z,6.80
2023-01-21T02:48:06.058Z,6.90
2023-01-21T02:50:39.378Z,6.60
2023-01-21T02:53:08.161Z,6.57
2023-01-21T02:55:43.443Z,6.23
2023-01-21T02:58:15.711Z,6.10
2023-01-21T03:00:59.584Z,5.97
2023-01-21T03:03:47.053Z,5.33
2023-01-21T03:06:39.006Z,6.13
2023-01-21T03:09:21.592Z,5.70
2023-01-21T03:12:21.189Z,6.13
2023-01-21T03:15:14.487Z,6.47
2023-01-21T03:17:46.859Z,6.60
2023-01-21T03:20:21.476Z,5.93
2023-01-21T03:22:56.173Z,6.37
2023-01-21T03:25:26.272Z,7.30
2023-01-21T03:27:56.273Z,6.37
2023-01-21T03:30:27.337Z,6.80
2023-01-21T03:32:58.549Z,6.70
2023-01-21T03:35:30.726Z,6.17
2023-01-21T03:38:05.236Z,7.07
2023-01-21T03:40:40.687Z,8.17
2023-01-21T03:43:09.341Z,7.10
2023-01-21T03:45:45.139Z,6.83
2023-01-21T03:48:20.596Z,6.50
2023-01-21T03:53:24.486Z,6.30
2023-01-21T03:55:53.174Z,5.83
2023-01-21T03:58:21.745Z,6.20
2023-01-21T04:00:50.526Z,6.00
2023-01-21T04:03:19.055Z,6.37
2023-01-21T04:05:47.753Z,6.00
2023-01-21T04:08:16.331Z,5.70
2023-01-21T04:10:46.327Z,5.80
2023-01-21T04:13:14.693Z,5.63
2023-01-21T04:15:43.162Z,6.13
2023-01-21T04:18:11.676Z,6.13
2023-01-21T04:20:43.265Z,5.93
2023-01-21T04:23:12.871Z,6.37
2023-01-21T04:25:41.420Z,6.07
2023-01-21T04:28:12.155Z,6.43
2023-01-21T04:30:40.637Z,6.80
2023-01-21T04:33:09.747Z,6.80
2023-01-21T04:35:38.559Z,6.70
2023-01-21T04:38:07.638Z,6.13
2023-01-21T04:40:36.160Z,6.57
2023-01-21T04:43:04.782Z,6.37
2023-01-21T04:45:34.789Z,5.70
2023-01-21T04:48:03.302Z,6.93
2023-01-21T04:50:31.637Z,7.00
2023-01-21T04:53:00.011Z,7.37
2023-01-21T04:55:33.593Z,7.70
2023-01-21T04:58:02.013Z,7.97
2023-01-21T05:00:30.572Z,7.77
2023-01-21T05:03:00.280Z,7.87
2023-01-21T05:05:28.827Z,8.10
2023-01-21T05:07:57.248Z,8.00
2023-01-21T05:10:25.581Z,7.90
2023-01-21T05:12:53.941Z,6.90
2023-01-21T05:15:22.422Z,7.20
2023-01-21T05:17:51.002Z,7.40
2023-01-21T05:20:21.081Z,7.43
2023-01-21T05:22:49.724Z,7.37
2023-01-21T05:25:18.365Z,7.20
2023-01-21T05:27:52.408Z,7.30
2023-01-21T05:30:21.053Z,7.00
2023-01-21T05:32:52.208Z,7.53
2023-01-21T05:35:23.669Z,7.10
2023-01-21T05:37:52.074Z,7.27
2023-01-21T05:40:20.718Z,7.70
2023-01-21T05:42:49.210Z,8.10
2023-01-21T05:45:17.694Z,7.07
2023-01-21T05:47:46.026Z,7.00
2023-01-21T05:50:15.259Z,7.30
2023-01-21T05:52:47.374Z,7.57
2023-01-21T05:55:16.298Z,7.50
2023-01-21T05:57:44.806Z,6.80
2023-01-21T06:00:14.909Z,7.37
2023-01-21T06:02:43.546Z,7.27
2023-01-21T06:05:11.999Z,7.73
2023-01-21T06:07:40.423Z,7.70
2023-01-21T06:10:11.630Z,7.73
2023-01-21T06:12:40.728Z,8.17
2023-01-21T06:15:13.897Z,7.30
2023-01-21T06:17:42.288Z,6.70
2023-01-21T06:20:12.012Z,6.67
2023-01-21T06:22:40.732Z,6.30
2023-01-21T06:28:10.203Z,6.63
2023-01-21T06:30:38.950Z,6.77
2023-01-21T06:33:07.388Z,6.13
2023-01-21T06:35:37.288Z,6.30
2023-01-21T06:38:06.050Z,6.77
2023-01-21T06:40:35.976Z,7.00
2023-01-21T06:43:04.743Z,6.50
2023-01-21T22:31:35.703Z,20.43
2023-01-21T22:36:31.514Z,22.60
2023-01-21T22:39:00.043Z,22.30
2023-01-21T22:41:29.229Z,21.60
2023-01-21T22:43:57.817Z,20.90
2023-01-21T22:46:31.436Z,23.20
2023-01-21T22:49:02.022Z,21.93
2023-01-21T22:51:31.340Z,21.13
2023-01-21T22:54:00.296Z,20.67
2023-01-21T22:56:49.541Z,20.43
2023-01-21T22:59:17.716Z,20.83
2023-01-21T23:01:50.943Z,19.37
2023-01-21T23:04:20.864Z,22.90
2023-01-21T23:06:54.763Z,22.27
2023-01-21T23:09:23.157Z,22.37
2023-01-21T23:11:52.758Z,22.87
2023-01-21T23:14:21.696Z,21.43
2023-01-21T23:16:52.499Z,21.67
2023-01-21T23:19:22.392Z,24.07
2023-01-21T23:21:50.769Z,22.60
2023-01-21T23:24:19.739Z,21.40
2023-01-21T23:26:48.046Z,23.30
2023-01-21T23:29:19.678Z,22.30
2023-01-21T23:31:48.164Z,20.40
2023-01-21T23:34:19.302Z,20.57
2023-01-21T23:36:53.242Z,18.83
2023-01-21T23:39:21.529Z,19.17
2023-01-21T23:41:50.452Z,19.17
2023-01-21T23:44:18.981Z,18.57
2023-01-21T23:46:47.926Z,17.50
2023-01-21T23:49:18.547Z,18.90
2023-01-21T23:51:49.136Z,17.23
2023-01-21T23:54:20.765Z,18.77
2023-01-21T23:56:49.156Z,19.23
2023-01-21T23:59:17.654Z,18.10
